sensor_id;sensor_type;location;lat;lon;timestamp;P1;durP1;ratioP1;P2;durP2;ratioP2
52126;SDS011;38120;53.176;6.614;2023-02-22T00:00:20;47.55;;;24.25;;
52126;SDS011;38120;53.176;6.614;2023-02-22T00:02:51;47.45;;;23.55;;
52126;SDS011;38120;53.176;6.614;2023-02-22T00:05:24;49.22;;;26.00;;
52126;SDS011;38120;53.176;6.614;2023-02-22T00:07:55;38.65;;;21.35;;
52126;SDS011;38120;53.176;6.614;2023-02-22T00:10:21;43.47;;;22.60;;
52126;SDS011;38120;53.176;6.614;2023-02-22T00:12:49;43.97;;;21.08;;
52126;SDS011;38120;53.176;6.614;2023-02-22T00:15:17;45.92;;;24.05;;
52126;SDS011;38120;53.176;6.614;2023-02-22T00:17:45;43.80;;;23.20;;
52126;SDS011;38120;53.176;6.614;2023-02-22T00:20:12;42.72;;;20.55;;
52126;SDS011;38120;53.176;6.614;2023-02-22T00:22:42;39.90;;;23.02;;
52126;SDS011;38120;53.176;6.614;2023-02-22T00:25:13;42.78;;;22.10;;
52126;SDS011;38120;53.176;6.614;2023-02-22T00:27:41;41.60;;;22.50;;
52126;SDS011;38120;53.176;6.614;2023-02-22T00:32:37;37.38;;;21.00;;
52126;SDS011;38120;53.176;6.614;2023-02-22T00:35:03;41.67;;;20.07;;
52126;SDS011;38120;53.176;6.614;2023-02-22T00:37:32;42.70;;;21.25;;
52126;SDS011;38120;53.176;6.614;2023-02-22T00:39:59;41.00;;;21.15;;
52126;SDS011;38120;53.176;6.614;2023-02-22T00:42:25;42.72;;;21.52;;
52126;SDS011;38120;53.176;6.614;2023-02-22T00:44:51;39.80;;;21.43;;
52126;SDS011;38120;53.176;6.614;2023-02-22T00:47:17;37.63;;;20.10;;
52126;SDS011;38120;53.176;6.614;2023-02-22T00:49:42;39.53;;;19.75;;
52126;SDS011;38120;53.176;6.614;2023-02-22T00:52:08;36.40;;;20.27;;
52126;SDS011;38120;53.176;6.614;2023-02-22T00:54:34;39.20;;;21.40;;
52126;SDS011;38120;53.176;6.614;2023-02-22T00:57:00;35.38;;;20.65;;
52126;SDS011;38120;53.176;6.614;2023-02-22T00:59:26;41.78;;;22.02;;
52126;SDS011;38120;53.176;6.614;2023-02-22T01:01:52;38.83;;;20.67;;
52126;SDS011;38120;53.176;6.614;2023-02-22T01:04:17;36.47;;;19.58;;
52126;SDS011;38120;53.176;6.614;2023-02-22T01:06:43;39.13;;;19.73;;
52126;SDS011;38120;53.176;6.614;2023-02-22T01:09:09;37.97;;;20.80;;
52126;SDS011;38120;53.176;6.614;2023-02-22T01:11:34;39.23;;;21.53;;
52126;SDS011;38120;53.176;6.614;2023-02-22T01:14:00;33.70;;;17.77;;
52126;SDS011;38120;53.176;6.614;2023-02-22T01:16:26;31.67;;;19.03;;
52126;SDS011;38120;53.176;6.614;2023-02-22T01:18:52;35.70;;;19.17;;
52126;SDS011;38120;53.176;6.614;2023-02-22T01:21:18;34.67;;;18.57;;
52126;SDS011;38120;53.176;6.614;2023-02-22T01:23:44;34.10;;;17.52;;
52126;SDS011;38120;53.176;6.614;2023-02-22T01:26:10;36.88;;;17.73;;
52126;SDS011;38120;53.176;6.614;2023-02-22T01:28:36;31.83;;;17.67;;
52126;SDS011;38120;53.176;6.614;2023-02-22T01:31:02;29.45;;;16.70;;
52126;SDS011;38120;53.176;6.614;2023-02-22T01:33:28;30.42;;;17.60;;
52126;SDS011;38120;53.176;6.614;2023-02-22T01:35:55;29.63;;;16.42;;
52126;SDS011;38120;53.176;6.614;2023-02-22T01:38:20;34.43;;;17.17;;
52126;SDS011;38120;53.176;6.614;2023-02-22T01:40:47;30.58;;;17.90;;
52126;SDS011;38120;53.176;6.614;2023-02-22T01:43:18;29.90;;;16.33;;
52126;SDS011;38120;53.176;6.614;2023-02-22T01:50:57;31.08;;;16.10;;
52126;SDS011;38120;53.176;6.614;2023-02-22T01:53:44;32.70;;;15.43;;
52126;SDS011;38120;53.176;6.614;2023-02-22T01:56:20;27.67;;;15.73;;
52126;SDS011;38120;53.176;6.614;2023-02-22T01:58:48;35.08;;;16.65;;
52126;SDS011;38120;53.176;6.614;2023-02-22T02:01:17;29.13;;;16.63;;
52126;SDS011;38120;53.176;6.614;2023-02-22T02:03:44;29.13;;;14.85;;
52126;SDS011;38120;53.176;6.614;2023-02-22T02:06:13;28.48;;;15.20;;
52126;SDS011;38120;53.176;6.614;2023-02-22T02:08:42;25.45;;;14.50;;
52126;SDS011;38120;53.176;6.614;2023-02-22T02:11:14;28.00;;;15.52;;
52126;SDS011;38120;53.176;6.614;2023-02-22T02:13:41;24.77;;;14.20;;
52126;SDS011;38120;53.176;6.614;2023-02-22T02:16:07;24.33;;;14.00;;
52126;SDS011;38120;53.176;6.614;2023-02-22T02:18:33;27.40;;;13.90;;
52126;SDS011;38120;53.176;6.614;2023-02-22T02:21:06;25.40;;;13.90;;
52126;SDS011;38120;53.176;6.614;2023-02-22T02:24:25;26.42;;;14.75;;
52126;SDS011;38120;53.176;6.614;2023-02-22T02:35:25;25.65;;;13.68;;
52126;SDS011;38120;53.176;6.614;2023-02-22T02:46:05;24.15;;;14.00;;
52126;SDS011;38120;53.176;6.614;2023-02-22T02:48:40;24.98;;;13.38;;
52126;SDS011;38120;53.176;6.614;2023-02-22T02:51:10;26.45;;;14.57;;
52126;SDS011;38120;53.176;6.614;2023-02-22T02:53:39;25.40;;;14.50;;
52126;SDS011;38120;53.176;6.614;2023-02-22T02:56:08;27.55;;;14.63;;
52126;SDS011;38120;53.176;6.614;2023-02-22T02:58:42;26.80;;;15.02;;
52126;SDS011;38120;53.176;6.614;2023-02-22T03:01:13;28.60;;;15.82;;
52126;SDS011;38120;53.176;6.614;2023-02-22T03:15:13;28.92;;;16.85;;
52126;SDS011;38120;53.176;6.614;2023-02-22T03:17:47;31.70;;;16.10;;
52126;SDS011;38120;53.176;6.614;2023-02-22T03:22:50;32.30;;;16.70;;
52126;SDS011;38120;53.176;6.614;2023-02-22T03:25:30;28.45;;;15.93;;
52126;SDS011;38120;53.176;6.614;2023-02-22T03:28:02;31.45;;;17.85;;
52126;SDS011;38120;53.176;6.614;2023-02-22T03:30:41;33.33;;;18.05;;
52126;SDS011;38120;53.176;6.614;2023-02-22T03:33:21;35.97;;;19.00;;
52126;SDS011;38120;53.176;6.614;2023-02-22T03:35:58;33.42;;;18.27;;
52126;SDS011;38120;53.176;6.614;2023-02-22T03:38:28;32.50;;;17.92;;
52126;SDS011;38120;53.176;6.614;2023-02-22T03:40:58;38.05;;;17.67;;
52126;SDS011;38120;53.176;6.614;2023-02-22T03:43:59;30.65;;;16.45;;
52126;SDS011;38120;53.176;6.614;2023-02-22T03:46:21;29.55;;;17.52;;
52126;SDS011;38120;53.176;6.614;2023-02-22T03:48:58;31.80;;;17.45;;
52126;SDS011;38120;53.176;6.614;2023-02-22T03:51:44;32.03;;;17.75;;
52126;SDS011;38120;53.176;6.614;2023-02-22T03:54:11;31.85;;;19.05;;
52126;SDS011;38120;53.176;6.614;2023-02-22T03:56:48;35.53;;;18.88;;
52126;SDS011;38120;53.176;6.614;2023-02-22T03:59:21;35.15;;;19.13;;
52126;SDS011;38120;53.176;6.614;2023-02-22T04:01:50;32.53;;;18.98;;
52126;SDS011;38120;53.176;6.614;2023-02-22T04:06:42;36.20;;;19.38;;
52126;SDS011;38120;53.176;6.614;2023-02-22T04:09:09;43.42;;;19.17;;
52126;SDS011;38120;53.176;6.614;2023-02-22T04:11:35;37.40;;;19.02;;
52126;SDS011;38120;53.176;6.614;2023-02-22T04:14:00;33.97;;;17.57;;
52126;SDS011;38120;53.176;6.614;2023-02-22T04:16:26;35.63;;;19.00;;
52126;SDS011;38120;53.176;6.614;2023-02-22T04:18:52;31.85;;;18.27;;
52126;SDS011;38120;53.176;6.614;2023-02-22T04:21:18;33.37;;;18.57;;
52126;SDS011;38120;53.176;6.614;2023-02-22T04:23:43;36.40;;;20.70;;
52126;SDS011;38120;53.176;6.614;2023-02-22T04:26:09;38.70;;;19.67;;
52126;SDS011;38120;53.176;6.614;2023-02-22T04:28:35;34.75;;;18.35;;
52126;SDS011;38120;53.176;6.614;2023-02-22T04:31:00;39.60;;;20.03;;
52126;SDS011;38120;53.176;6.614;2023-02-22T04:33:26;37.60;;;20.77;;
52126;SDS011;38120;53.176;6.614;2023-02-22T04:35:52;36.73;;;19.80;;
52126;SDS011;38120;53.176;6.614;2023-02-22T04:38:17;37.73;;;17.90;;
52126;SDS011;38120;53.176;6.614;2023-02-22T04:40:43;34.13;;;19.37;;
52126;SDS011;38120;53.176;6.614;2023-02-22T04:45:35;34.17;;;18.58;;
52126;SDS011;38120;53.176;6.614;2023-02-22T04:48:01;33.93;;;17.47;;
52126;SDS011;38120;53.176;6.614;2023-02-22T04:50:27;36.03;;;19.67;;
52126;SDS011;38120;53.176;6.614;2023-02-22T04:52:52;33.23;;;18.93;;
52126;SDS011;38120;53.176;6.614;2023-02-22T04:55:18;38.57;;;18.57;;
52126;SDS011;38120;53.176;6.614;2023-02-22T04:57:44;36.57;;;20.40;;
52126;SDS011;38120;53.176;6.614;2023-02-22T05:00:10;33.85;;;17.83;;
52126;SDS011;38120;53.176;6.614;2023-02-22T05:02:40;36.88;;;19.85;;
52126;SDS011;38120;53.176;6.614;2023-02-22T05:05:05;35.70;;;18.50;;
52126;SDS011;38120;53.176;6.614;2023-02-22T05:07:31;30.10;;;17.83;;
52126;SDS011;38120;53.176;6.614;2023-02-22T05:09:57;35.00;;;19.03;;
52126;SDS011;38120;53.176;6.614;2023-02-22T05:12:22;35.42;;;17.83;;
52126;SDS011;38120;53.176;6.614;2023-02-22T05:14:51;33.85;;;20.45;;
52126;SDS011;38120;53.176;6.614;2023-02-22T05:17:17;38.33;;;18.83;;
52126;SDS011;38120;53.176;6.614;2023-02-22T05:19:42;36.53;;;20.80;;
52126;SDS011;38120;53.176;6.614;2023-02-22T05:22:08;40.80;;;21.88;;
52126;SDS011;38120;53.176;6.614;2023-02-22T05:24:34;34.27;;;19.10;;
52126;SDS011;38120;53.176;6.614;2023-02-22T05:26:59;41.13;;;21.37;;
52126;SDS011;38120;53.176;6.614;2023-02-22T05:29:25;43.13;;;23.33;;
52126;SDS011;38120;53.176;6.614;2023-02-22T05:31:51;45.43;;;23.37;;
52126;SDS011;38120;53.176;6.614;2023-02-22T05:34:16;48.27;;;23.20;;
52126;SDS011;38120;53.176;6.614;2023-02-22T05:36:42;55.73;;;27.47;;
52126;SDS011;38120;53.176;6.614;2023-02-22T05:39:08;50.20;;;26.33;;
52126;SDS011;38120;53.176;6.614;2023-02-22T05:41:34;46.03;;;24.15;;
52126;SDS011;38120;53.176;6.614;2023-02-22T05:43:59;47.57;;;25.17;;
52126;SDS011;38120;53.176;6.614;2023-02-22T05:46:27;58.35;;;26.23;;
52126;SDS011;38120;53.176;6.614;2023-02-22T05:48:52;51.15;;;24.65;;
52126;SDS011;38120;53.176;6.614;2023-02-22T05:51:18;55.63;;;26.23;;
52126;SDS011;38120;53.176;6.614;2023-02-22T05:53:44;53.07;;;26.60;;
52126;SDS011;38120;53.176;6.614;2023-02-22T05:56:09;49.00;;;27.37;;
52126;SDS011;38120;53.176;6.614;2023-02-22T05:58:35;50.20;;;28.03;;
52126;SDS011;38120;53.176;6.614;2023-02-22T06:01:01;45.43;;;25.40;;
52126;SDS011;38120;53.176;6.614;2023-02-22T06:03:26;55.47;;;26.47;;
52126;SDS011;38120;53.176;6.614;2023-02-22T06:05:52;56.30;;;28.77;;
52126;SDS011;38120;53.176;6.614;2023-02-22T06:08:18;56.43;;;29.20;;
52126;SDS011;38120;53.176;6.614;2023-02-22T06:10:43;52.13;;;27.47;;
52126;SDS011;38120;53.176;6.614;2023-02-22T06:13:09;58.77;;;28.87;;
52126;SDS011;38120;53.176;6.614;2023-02-22T06:15:35;60.90;;;31.73;;
52126;SDS011;38120;53.176;6.614;2023-02-22T06:18:01;58.47;;;28.33;;
52126;SDS011;38120;53.176;6.614;2023-02-22T06:20:27;58.90;;;31.40;;
52126;SDS011;38120;53.176;6.614;2023-02-22T06:22:54;64.30;;;33.78;;
52126;SDS011;38120;53.176;6.614;2023-02-22T06:25:24;60.10;;;30.45;;
52126;SDS011;38120;53.176;6.614;2023-02-22T06:27:51;64.47;;;31.90;;
52126;SDS011;38120;53.176;6.614;2023-02-22T06:30:17;65.63;;;32.80;;
52126;SDS011;38120;53.176;6.614;2023-02-22T06:32:45;56.45;;;31.02;;
52126;SDS011;38120;53.176;6.614;2023-02-22T06:35:11;63.43;;;29.83;;
52126;SDS011;38120;53.176;6.614;2023-02-22T06:37:38;61.97;;;33.92;;
52126;SDS011;38120;53.176;6.614;2023-02-22T06:40:04;66.57;;;31.80;;
52126;SDS011;38120;53.176;6.614;2023-02-22T06:42:30;67.15;;;35.80;;
52126;SDS011;38120;53.176;6.614;2023-02-22T06:44:56;70.32;;;34.00;;
52126;SDS011;38120;53.176;6.614;2023-02-22T06:47:21;68.27;;;32.67;;
52126;SDS011;38120;53.176;6.614;2023-02-22T06:49:51;70.47;;;33.72;;
52126;SDS011;38120;53.176;6.614;2023-02-22T06:52:20;64.35;;;33.80;;
52126;SDS011;38120;53.176;6.614;2023-02-22T06:54:47;77.60;;;35.03;;
52126;SDS011;38120;53.176;6.614;2023-02-22T06:59:39;71.38;;;34.22;;
52126;SDS011;38120;53.176;6.614;2023-02-22T07:02:05;61.17;;;31.50;;
52126;SDS011;38120;53.176;6.614;2023-02-22T07:04:30;65.93;;;31.73;;
52126;SDS011;38120;53.176;6.614;2023-02-22T07:06:56;70.23;;;33.00;;
52126;SDS011;38120;53.176;6.614;2023-02-22T07:09:22;66.50;;;33.03;;
52126;SDS011;38120;53.176;6.614;2023-02-22T07:11:47;68.23;;;35.40;;
52126;SDS011;38120;53.176;6.614;2023-02-22T07:14:15;73.25;;;37.42;;
52126;SDS011;38120;53.176;6.614;2023-02-22T07:16:41;69.78;;;35.70;;
52126;SDS011;38120;53.176;6.614;2023-02-22T07:19:07;69.27;;;34.60;;
52126;SDS011;38120;53.176;6.614;2023-02-22T07:21:33;78.38;;;35.58;;
52126;SDS011;38120;53.176;6.614;2023-02-22T07:23:58;65.50;;;33.10;;
52126;SDS011;38120;53.176;6.614;2023-02-22T07:26:24;69.03;;;34.53;;
52126;SDS011;38120;53.176;6.614;2023-02-22T07:28:50;75.78;;;34.70;;
52126;SDS011;38120;53.176;6.614;2023-02-22T07:31:16;75.97;;;35.45;;
52126;SDS011;38120;53.176;6.614;2023-02-22T07:33:44;77.70;;;37.17;;
52126;SDS011;38120;53.176;6.614;2023-02-22T07:36:10;74.00;;;37.58;;
52126;SDS011;38120;53.176;6.614;2023-02-22T07:38:42;79.13;;;36.15;;
52126;SDS011;38120;53.176;6.614;2023-02-22T07:41:09;78.15;;;37.88;;
52126;SDS011;38120;53.176;6.614;2023-02-22T07:43:35;73.07;;;34.97;;
52126;SDS011;38120;53.176;6.614;2023-02-22T07:46:03;71.03;;;34.72;;
52126;SDS011;38120;53.176;6.614;2023-02-22T07:48:29;78.47;;;38.15;;
52126;SDS011;38120;53.176;6.614;2023-02-22T07:53:33;76.15;;;35.30;;
52126;SDS011;38120;53.176;6.614;2023-02-22T07:56:00;80.25;;;34.92;;
52126;SDS011;38120;53.176;6.614;2023-02-22T07:58:27;77.25;;;39.00;;
52126;SDS011;38120;53.176;6.614;2023-02-22T08:00:55;74.20;;;37.67;;
52126;SDS011;38120;53.176;6.614;2023-02-22T08:03:22;77.57;;;36.38;;
52126;SDS011;38120;53.176;6.614;2023-02-22T08:05:53;78.85;;;38.10;;
52126;SDS011;38120;53.176;6.614;2023-02-22T08:08:21;76.40;;;39.30;;
52126;SDS011;38120;53.176;6.614;2023-02-22T08:10:47;79.32;;;37.80;;
52126;SDS011;38120;53.176;6.614;2023-02-22T08:13:15;80.97;;;39.55;;
52126;SDS011;38120;53.176;6.614;2023-02-22T08:15:41;79.13;;;38.38;;
52126;SDS011;38120;53.176;6.614;2023-02-22T08:18:20;91.95;;;40.83;;
52126;SDS011;38120;53.176;6.614;2023-02-22T08:20:47;75.35;;;39.65;;
52126;SDS011;38120;53.176;6.614;2023-02-22T08:23:14;88.43;;;40.95;;
52126;SDS011;38120;53.176;6.614;2023-02-22T08:25:43;84.88;;;41.17;;
52126;SDS011;38120;53.176;6.614;2023-02-22T08:28:10;73.63;;;37.83;;
52126;SDS011;38120;53.176;6.614;2023-02-22T08:30:37;81.45;;;41.55;;
52126;SDS011;38120;53.176;6.614;2023-02-22T08:33:04;79.95;;;38.40;;
52126;SDS011;38120;53.176;6.614;2023-02-22T08:35:30;74.85;;;36.58;;
52126;SDS011;38120;53.176;6.614;2023-02-22T08:37:58;80.32;;;37.90;;
52126;SDS011;38120;53.176;6.614;2023-02-22T08:40:26;82.28;;;37.42;;
52126;SDS011;38120;53.176;6.614;2023-02-22T08:42:55;81.15;;;39.00;;
52126;SDS011;38120;53.176;6.614;2023-02-22T08:45:21;77.55;;;40.15;;
52126;SDS011;38120;53.176;6.614;2023-02-22T08:47:47;72.93;;;36.90;;
52126;SDS011;38120;53.176;6.614;2023-02-22T08:50:18;71.10;;;35.28;;
52126;SDS011;38120;53.176;6.614;2023-02-22T08:52:53;73.45;;;36.75;;
52126;SDS011;38120;53.176;6.614;2023-02-22T08:55:20;67.07;;;35.30;;
52126;SDS011;38120;53.176;6.614;2023-02-22T08:57:47;74.70;;;35.90;;
52126;SDS011;38120;53.176;6.614;2023-02-22T09:00:15;71.43;;;35.15;;
52126;SDS011;38120;53.176;6.614;2023-02-22T09:02:42;87.80;;;38.05;;
52126;SDS011;38120;53.176;6.614;2023-02-22T09:05:08;79.63;;;34.85;;
52126;SDS011;38120;53.176;6.614;2023-02-22T09:07:47;76.07;;;36.08;;
52126;SDS011;38120;53.176;6.614;2023-02-22T09:10:15;73.93;;;33.87;;
52126;SDS011;38120;53.176;6.614;2023-02-22T09:12:42;69.13;;;32.85;;
52126;SDS011;38120;53.176;6.614;2023-02-22T09:15:08;68.37;;;31.73;;
52126;SDS011;38120;53.176;6.614;2023-02-22T09:17:35;73.85;;;35.60;;
52126;SDS011;38120;53.176;6.614;2023-02-22T09:20:04;71.88;;;36.65;;
52126;SDS011;38120;53.176;6.614;2023-02-22T09:22:31;66.53;;;35.33;;
52126;SDS011;38120;53.176;6.614;2023-02-22T09:24:58;73.93;;;33.63;;
52126;SDS011;38120;53.176;6.614;2023-02-22T09:27:23;75.25;;;35.80;;
52126;SDS011;38120;53.176;6.614;2023-02-22T09:29:53;71.82;;;37.65;;
52126;SDS011;38120;53.176;6.614;2023-02-22T09:32:20;69.85;;;35.03;;
52126;SDS011;38120;53.176;6.614;2023-02-22T09:34:51;69.80;;;34.05;;
52126;SDS011;38120;53.176;6.614;2023-02-22T09:37:27;72.78;;;35.95;;
52126;SDS011;38120;53.176;6.614;2023-02-22T09:39:52;68.57;;;35.63;;
52126;SDS011;38120;53.176;6.614;2023-02-22T09:47:42;68.63;;;35.28;;
52126;SDS011;38120;53.176;6.614;2023-02-22T09:50:14;63.38;;;33.55;;
52126;SDS011;38120;53.176;6.614;2023-02-22T09:52:50;71.18;;;31.73;;
52126;SDS011;38120;53.176;6.614;2023-02-22T09:58:03;72.97;;;33.47;;
52126;SDS011;38120;53.176;6.614;2023-02-22T10:00:42;77.95;;;34.17;;
52126;SDS011;38120;53.176;6.614;2023-02-22T10:03:19;99.50;;;37.22;;
52126;SDS011;38120;53.176;6.614;2023-02-22T10:05:49;68.90;;;32.17;;
52126;SDS011;38120;53.176;6.614;2023-02-22T10:08:36;69.35;;;34.63;;
52126;SDS011;38120;53.176;6.614;2023-02-22T10:27:20;73.70;;;33.13;;
52126;SDS011;38120;53.176;6.614;2023-02-22T10:30:15;71.43;;;32.28;;
52126;SDS011;38120;53.176;6.614;2023-02-22T10:32:44;69.13;;;33.53;;
52126;SDS011;38120;53.176;6.614;2023-02-22T10:35:21;73.07;;;35.10;;
52126;SDS011;38120;53.176;6.614;2023-02-22T10:37:52;65.32;;;32.83;;
52126;SDS011;38120;53.176;6.614;2023-02-22T10:40:24;71.47;;;33.42;;
52126;SDS011;38120;53.176;6.614;2023-02-22T10:43:05;67.72;;;36.05;;
52126;SDS011;38120;53.176;6.614;2023-02-22T10:45:33;74.28;;;33.28;;
52126;SDS011;38120;53.176;6.614;2023-02-22T10:48:05;68.70;;;34.20;;
52126;SDS011;38120;53.176;6.614;2023-02-22T10:50:36;75.00;;;36.17;;
52126;SDS011;38120;53.176;6.614;2023-02-22T10:53:05;66.75;;;34.03;;
52126;SDS011;38120;53.176;6.614;2023-02-22T10:55:31;65.13;;;32.75;;
52126;SDS011;38120;53.176;6.614;2023-02-22T10:57:59;81.90;;;35.88;;
52126;SDS011;38120;53.176;6.614;2023-02-22T11:00:30;66.20;;;32.90;;
52126;SDS011;38120;53.176;6.614;2023-02-22T11:03:02;73.32;;;36.15;;
52126;SDS011;38120;53.176;6.614;2023-02-22T11:05:40;74.55;;;34.22;;
52126;SDS011;38120;53.176;6.614;2023-02-22T11:08:13;68.63;;;35.38;;
52126;SDS011;38120;53.176;6.614;2023-02-22T11:10:46;64.15;;;34.28;;
52126;SDS011;38120;53.176;6.614;2023-02-22T11:16:16;77.07;;;35.05;;
52126;SDS011;38120;53.176;6.614;2023-02-22T11:18:59;66.95;;;34.85;;
52126;SDS011;38120;53.176;6.614;2023-02-22T11:21:41;71.50;;;33.60;;
52126;SDS011;38120;53.176;6.614;2023-02-22T11:24:09;66.40;;;34.83;;
52126;SDS011;38120;53.176;6.614;2023-02-22T11:26:41;71.10;;;31.85;;
52126;SDS011;38120;53.176;6.614;2023-02-22T11:29:11;73.13;;;33.58;;
52126;SDS011;38120;53.176;6.614;2023-02-22T11:31:49;68.20;;;33.33;;
52126;SDS011;38120;53.176;6.614;2023-02-22T11:34:27;71.07;;;32.17;;
52126;SDS011;38120;53.176;6.614;2023-02-22T11:36:53;68.70;;;31.25;;
52126;SDS011;38120;53.176;6.614;2023-02-22T11:39:23;65.30;;;31.80;;
52126;SDS011;38120;53.176;6.614;2023-02-22T11:44:47;65.22;;;33.08;;
52126;SDS011;38120;53.176;6.614;2023-02-22T11:47:21;72.22;;;30.52;;
52126;SDS011;38120;53.176;6.614;2023-02-22T11:52:15;61.80;;;28.27;;
52126;SDS011;38120;53.176;6.614;2023-02-22T12:13:39;55.85;;;28.05;;
52126;SDS011;38120;53.176;6.614;2023-02-22T12:21:36;57.50;;;28.23;;
52126;SDS011;38120;53.176;6.614;2023-02-22T12:24:17;61.28;;;28.42;;
52126;SDS011;38120;53.176;6.614;2023-02-22T12:26:52;54.95;;;28.70;;
52126;SDS011;38120;53.176;6.614;2023-02-22T12:35:03;59.50;;;27.05;;
52126;SDS011;38120;53.176;6.614;2023-02-22T12:43:17;53.80;;;26.08;;
52126;SDS011;38120;53.176;6.614;2023-02-22T12:45:53;54.90;;;24.90;;
52126;SDS011;38120;53.176;6.614;2023-02-22T12:51:16;61.67;;;27.42;;
52126;SDS011;38120;53.176;6.614;2023-02-22T12:53:53;49.40;;;24.98;;
52126;SDS011;38120;53.176;6.614;2023-02-22T13:01:59;55.50;;;26.30;;
52126;SDS011;38120;53.176;6.614;2023-02-22T13:04:34;60.13;;;28.07;;
52126;SDS011;38120;53.176;6.614;2023-02-22T13:20:30;52.85;;;25.55;;
52126;SDS011;38120;53.176;6.614;2023-02-22T13:23:09;50.78;;;25.33;;
52126;SDS011;38120;53.176;6.614;2023-02-22T13:28:54;52.95;;;27.48;;
52126;SDS011;38120;53.176;6.614;2023-02-22T13:37:22;46.58;;;24.02;;
52126;SDS011;38120;53.176;6.614;2023-02-22T13:56:20;47.25;;;23.42;;
52126;SDS011;38120;53.176;6.614;2023-02-22T13:58:56;48.28;;;23.55;;
52126;SDS011;38120;53.176;6.614;2023-02-22T14:06:55;53.75;;;23.55;;
52126;SDS011;38120;53.176;6.614;2023-02-22T14:09:42;48.17;;;22.98;;
52126;SDS011;38120;53.176;6.614;2023-02-22T14:15:16;52.88;;;24.20;;
52126;SDS011;38120;53.176;6.614;2023-02-22T14:17:46;43.00;;;23.58;;
52126;SDS011;38120;53.176;6.614;2023-02-22T14:22:54;46.22;;;23.42;;
52126;SDS011;38120;53.176;6.614;2023-02-22T14:25:32;53.63;;;25.33;;
52126;SDS011;38120;53.176;6.614;2023-02-22T14:28:31;50.60;;;25.10;;
52126;SDS011;38120;53.176;6.614;2023-02-22T14:31:03;52.30;;;24.58;;
52126;SDS011;38120;53.176;6.614;2023-02-22T14:36:21;56.22;;;23.63;;
52126;SDS011;38120;53.176;6.614;2023-02-22T14:38:50;57.85;;;25.58;;
52126;SDS011;38120;53.176;6.614;2023-02-22T14:41:20;54.17;;;23.80;;
52126;SDS011;38120;53.176;6.614;2023-02-22T14:43:51;54.15;;;25.60;;
52126;SDS011;38120;53.176;6.614;2023-02-22T14:46:21;56.60;;;24.15;;
52126;SDS011;38120;53.176;6.614;2023-02-22T14:48:51;55.55;;;24.52;;
52126;SDS011;38120;53.176;6.614;2023-02-22T14:51:26;59.30;;;27.17;;
52126;SDS011;38120;53.176;6.614;2023-02-22T14:56:38;56.58;;;25.25;;
52126;SDS011;38120;53.176;6.614;2023-02-22T15:01:45;52.13;;;26.05;;
52126;SDS011;38120;53.176;6.614;2023-02-22T15:04:22;62.80;;;27.42;;
52126;SDS011;38120;53.176;6.614;2023-02-22T15:06:55;51.03;;;24.70;;
52126;SDS011;38120;53.176;6.614;2023-02-22T15:09:23;55.97;;;26.08;;
52126;SDS011;38120;53.176;6.614;2023-02-22T15:14:35;59.42;;;26.88;;
52126;SDS011;38120;53.176;6.614;2023-02-22T15:19:40;59.15;;;26.90;;
52126;SDS011;38120;53.176;6.614;2023-02-22T15:22:13;55.22;;;28.10;;
52126;SDS011;38120;53.176;6.614;2023-02-22T15:24:45;49.92;;;24.80;;
52126;SDS011;38120;53.176;6.614;2023-02-22T15:27:23;55.97;;;24.92;;
52126;SDS011;38120;53.176;6.614;2023-02-22T15:29:55;60.83;;;26.90;;
52126;SDS011;38120;53.176;6.614;2023-02-22T15:32:38;58.08;;;26.90;;
52126;SDS011;38120;53.176;6.614;2023-02-22T15:38:04;54.25;;;25.40;;
52126;SDS011;38120;53.176;6.614;2023-02-22T15:40:40;56.60;;;24.77;;
52126;SDS011;38120;53.176;6.614;2023-02-22T15:43:20;57.10;;;26.48;;
52126;SDS011;38120;53.176;6.614;2023-02-22T15:45:54;49.78;;;23.70;;
52126;SDS011;38120;53.176;6.614;2023-02-22T15:48:21;51.55;;;24.33;;
52126;SDS011;38120;53.176;6.614;2023-02-22T15:53:29;59.53;;;27.13;;
52126;SDS011;38120;53.176;6.614;2023-02-22T15:56:04;47.00;;;25.98;;
52126;SDS011;38120;53.176;6.614;2023-02-22T15:58:33;55.38;;;27.73;;
52126;SDS011;38120;53.176;6.614;2023-02-22T16:01:08;52.17;;;25.63;;
52126;SDS011;38120;53.176;6.614;2023-02-22T16:03:39;56.72;;;25.48;;
52126;SDS011;38120;53.176;6.614;2023-02-22T16:06:36;49.22;;;25.00;;
52126;SDS011;38120;53.176;6.614;2023-02-22T16:09:13;55.42;;;26.83;;
52126;SDS011;38120;53.176;6.614;2023-02-22T16:11:43;53.30;;;24.42;;
52126;SDS011;38120;53.176;6.614;2023-02-22T16:14:29;48.47;;;24.35;;
52126;SDS011;38120;53.176;6.614;2023-02-22T16:19:40;48.60;;;24.92;;
52126;SDS011;38120;53.176;6.614;2023-02-22T16:22:31;53.17;;;26.13;;
52126;SDS011;38120;53.176;6.614;2023-02-22T16:27:43;58.78;;;27.67;;
52126;SDS011;38120;53.176;6.614;2023-02-22T16:32:45;51.50;;;24.77;;
52126;SDS011;38120;53.176;6.614;2023-02-22T16:35:11;51.63;;;24.02;;
52126;SDS011;38120;53.176;6.614;2023-02-22T16:37:53;49.30;;;24.58;;
52126;SDS011;38120;53.176;6.614;2023-02-22T16:40:21;52.85;;;26.23;;
52126;SDS011;38120;53.176;6.614;2023-02-22T16:42:49;46.60;;;24.33;;
52126;SDS011;38120;53.176;6.614;2023-02-22T16:45:16;54.95;;;26.27;;
52126;SDS011;38120;53.176;6.614;2023-02-22T16:47:43;47.38;;;25.23;;
52126;SDS011;38120;53.176;6.614;2023-02-22T16:50:09;53.10;;;24.95;;
52126;SDS011;38120;53.176;6.614;2023-02-22T16:55:03;40.67;;;23.38;;
52126;SDS011;38120;53.176;6.614;2023-02-22T16:59:56;46.47;;;25.10;;
52126;SDS011;38120;53.176;6.614;2023-02-22T17:02:22;53.92;;;26.23;;
52126;SDS011;38120;53.176;6.614;2023-02-22T17:04:47;52.03;;;24.80;;
52126;SDS011;38120;53.176;6.614;2023-02-22T17:07:15;53.07;;;26.07;;
52126;SDS011;38120;53.176;6.614;2023-02-22T17:09:42;50.97;;;24.88;;
52126;SDS011;38120;53.176;6.614;2023-02-22T17:12:08;51.30;;;24.40;;
52126;SDS011;38120;53.176;6.614;2023-02-22T17:14:34;42.17;;;23.75;;
52126;SDS011;38120;53.176;6.614;2023-02-22T17:17:01;49.00;;;23.75;;
52126;SDS011;38120;53.176;6.614;2023-02-22T17:19:27;47.47;;;24.77;;
52126;SDS011;38120;53.176;6.614;2023-02-22T17:21:53;52.58;;;27.05;;
52126;SDS011;38120;53.176;6.614;2023-02-22T17:24:19;47.05;;;24.20;;
52126;SDS011;38120;53.176;6.614;2023-02-22T17:26:48;51.47;;;26.30;;
52126;SDS011;38120;53.176;6.614;2023-02-22T17:29:14;52.45;;;27.08;;
52126;SDS011;38120;53.176;6.614;2023-02-22T17:31:41;48.83;;;24.65;;
52126;SDS011;38120;53.176;6.614;2023-02-22T17:34:07;46.90;;;25.23;;
52126;SDS011;38120;53.176;6.614;2023-02-22T17:36:33;49.95;;;25.70;;
52126;SDS011;38120;53.176;6.614;2023-02-22T17:39:03;43.65;;;25.90;;
52126;SDS011;38120;53.176;6.614;2023-02-22T17:41:29;54.00;;;28.73;;
52126;SDS011;38120;53.176;6.614;2023-02-22T17:43:55;50.15;;;25.95;;
52126;SDS011;38120;53.176;6.614;2023-02-22T17:46:22;54.25;;;28.13;;
52126;SDS011;38120;53.176;6.614;2023-02-22T17:48:49;44.17;;;25.25;;
52126;SDS011;38120;53.176;6.614;2023-02-22T17:51:19;51.92;;;25.42;;
52126;SDS011;38120;53.176;6.614;2023-02-22T17:53:45;51.42;;;28.00;;
52126;SDS011;38120;53.176;6.614;2023-02-22T17:56:12;54.28;;;26.60;;
52126;SDS011;38120;53.176;6.614;2023-02-22T17:58:43;46.83;;;27.58;;
52126;SDS011;38120;53.176;6.614;2023-02-22T18:01:24;48.88;;;28.42;;